sensor_id;sensor_type;location;lat;lon;timestamp;P1;durP1;ratioP1;P2;durP2;ratioP2
50585;SDS011;36542;51.700;8.846;2023-04-01T00:00:48;1.70;;;0.70;;
50585;SDS011;36542;51.700;8.846;2023-04-01T00:03:14;0.90;;;0.60;;
50585;SDS011;36542;51.700;8.846;2023-04-01T00:05:40;0.87;;;0.60;;
50585;SDS011;36542;51.700;8.846;2023-04-01T00:08:06;1.97;;;0.60;;
50585;SDS011;36542;51.700;8.846;2023-04-01T00:10:31;1.87;;;0.60;;
50585;SDS011;36542;51.700;8.846;2023-04-01T00:12:57;1.00;;;0.50;;
50585;SDS011;36542;51.700;8.846;2023-04-01T00:15:22;1.87;;;0.90;;
50585;SDS011;36542;51.700;8.846;2023-04-01T00:17:48;2.33;;;0.93;;
50585;SDS011;36542;51.700;8.846;2023-04-01T00:20:14;1.60;;;0.77;;
50585;SDS011;36542;51.700;8.846;2023-04-01T00:22:40;0.87;;;0.53;;
50585;SDS011;36542;51.700;8.846;2023-04-01T00:25:06;2.00;;;0.67;;
50585;SDS011;36542;51.700;8.846;2023-04-01T00:27:31;1.37;;;0.67;;
50585;SDS011;36542;51.700;8.846;2023-04-01T00:29:57;1.23;;;0.40;;
50585;SDS011;36542;51.700;8.846;2023-04-01T00:32:23;2.83;;;0.73;;
50585;SDS011;36542;51.700;8.846;2023-04-01T00:34:51;0.40;;;0.30;;
50585;SDS011;36542;51.700;8.846;2023-04-01T00:37:18;1.50;;;0.60;;
50585;SDS011;36542;51.700;8.846;2023-04-01T00:39:44;1.50;;;0.70;;
50585;SDS011;36542;51.700;8.846;2023-04-01T00:42:10;3.10;;;0.80;;
50585;SDS011;36542;51.700;8.846;2023-04-01T00:44:37;1.20;;;0.60;;
50585;SDS011;36542;51.700;8.846;2023-04-01T00:47:03;1.73;;;0.70;;
50585;SDS011;36542;51.700;8.846;2023-04-01T00:49:42;2.03;;;0.73;;
50585;SDS011;36542;51.700;8.846;2023-04-01T00:52:11;0.77;;;0.40;;
50585;SDS011;36542;51.700;8.846;2023-04-01T00:54:40;2.23;;;0.70;;
50585;SDS011;36542;51.700;8.846;2023-04-01T00:57:10;2.10;;;0.50;;
50585;SDS011;36542;51.700;8.846;2023-04-01T00:59:44;4.30;;;0.70;;
50585;SDS011;36542;51.700;8.846;2023-04-01T01:02:14;0.60;;;0.50;;
50585;SDS011;36542;51.700;8.846;2023-04-01T01:04:40;2.13;;;0.40;;
50585;SDS011;36542;51.700;8.846;2023-04-01T01:07:10;2.97;;;0.77;;
50585;SDS011;36542;51.700;8.846;2023-04-01T01:09:59;3.17;;;1.07;;
50585;SDS011;36542;51.700;8.846;2023-04-01T01:15:30;3.23;;;0.80;;
50585;SDS011;36542;51.700;8.846;2023-04-01T01:18:09;2.30;;;0.50;;
50585;SDS011;36542;51.700;8.846;2023-04-01T01:20:41;1.37;;;0.60;;
50585;SDS011;36542;51.700;8.846;2023-04-01T01:34:40;0.73;;;0.47;;
50585;SDS011;36542;51.700;8.846;2023-04-01T01:37:27;1.30;;;0.60;;
50585;SDS011;36542;51.700;8.846;2023-04-01T01:39:55;0.53;;;0.40;;
50585;SDS011;36542;51.700;8.846;2023-04-01T01:42:26;1.53;;;0.40;;
50585;SDS011;36542;51.700;8.846;2023-04-01T01:44:54;1.40;;;0.40;;
50585;SDS011;36542;51.700;8.846;2023-04-01T01:47:22;0.37;;;0.37;;
50585;SDS011;36542;51.700;8.846;2023-04-01T01:49:48;0.40;;;0.30;;
50585;SDS011;36542;51.700;8.846;2023-04-01T01:52:16;0.67;;;0.60;;
50585;SDS011;36542;51.700;8.846;2023-04-01T01:54:52;1.13;;;0.47;;
50585;SDS011;36542;51.700;8.846;2023-04-01T01:57:20;3.90;;;0.67;;
50585;SDS011;36542;51.700;8.846;2023-04-01T01:59:55;1.27;;;0.30;;
50585;SDS011;36542;51.700;8.846;2023-04-01T02:02:37;1.30;;;0.40;;
50585;SDS011;36542;51.700;8.846;2023-04-01T02:05:05;0.43;;;0.30;;
50585;SDS011;36542;51.700;8.846;2023-04-01T02:07:33;0.77;;;0.30;;
50585;SDS011;36542;51.700;8.846;2023-04-01T02:10:02;1.73;;;0.40;;
50585;SDS011;36542;51.700;8.846;2023-04-01T02:12:28;1.73;;;0.73;;
50585;SDS011;36542;51.700;8.846;2023-04-01T02:14:57;0.60;;;0.30;;
50585;SDS011;36542;51.700;8.846;2023-04-01T02:17:30;3.40;;;0.40;;
50585;SDS011;36542;51.700;8.846;2023-04-01T02:20:03;0.80;;;0.40;;
50585;SDS011;36542;51.700;8.846;2023-04-01T02:22:37;1.00;;;0.50;;
50585;SDS011;36542;51.700;8.846;2023-04-01T02:25:12;0.43;;;0.30;;
50585;SDS011;36542;51.700;8.846;2023-04-01T02:27:40;1.00;;;0.40;;
50585;SDS011;36542;51.700;8.846;2023-04-01T02:30:08;0.43;;;0.40;;
50585;SDS011;36542;51.700;8.846;2023-04-01T02:32:35;0.40;;;0.40;;
50585;SDS011;36542;51.700;8.846;2023-04-01T02:35:04;2.50;;;0.27;;
50585;SDS011;36542;51.700;8.846;2023-04-01T02:37:38;0.57;;;0.30;;
50585;SDS011;36542;51.700;8.846;2023-04-01T02:40:07;1.00;;;0.30;;
50585;SDS011;36542;51.700;8.846;2023-04-01T02:42:34;1.00;;;0.20;;
50585;SDS011;36542;51.700;8.846;2023-04-01T02:45:00;0.57;;;0.40;;
50585;SDS011;36542;51.700;8.846;2023-04-01T02:47:26;1.50;;;0.40;;
50585;SDS011;36542;51.700;8.846;2023-04-01T02:49:51;0.20;;;0.20;;
50585;SDS011;36542;51.700;8.846;2023-04-01T02:52:22;1.33;;;0.43;;
50585;SDS011;36542;51.700;8.846;2023-04-01T02:54:48;1.53;;;0.30;;
50585;SDS011;36542;51.700;8.846;2023-04-01T02:57:14;2.77;;;0.70;;
50585;SDS011;36542;51.700;8.846;2023-04-01T02:59:40;2.07;;;0.40;;
50585;SDS011;36542;51.700;8.846;2023-04-01T03:02:05;1.70;;;0.40;;
50585;SDS011;36542;51.700;8.846;2023-04-01T03:04:31;1.33;;;0.30;;
50585;SDS011;36542;51.700;8.846;2023-04-01T03:06:57;0.40;;;0.40;;
50585;SDS011;36542;51.700;8.846;2023-04-01T03:09:23;0.20;;;0.20;;
50585;SDS011;36542;51.700;8.846;2023-04-01T03:11:48;0.63;;;0.37;;
50585;SDS011;36542;51.700;8.846;2023-04-01T03:14:14;0.47;;;0.20;;
50585;SDS011;36542;51.700;8.846;2023-04-01T03:16:39;0.33;;;0.20;;
50585;SDS011;36542;51.700;8.846;2023-04-01T03:19:05;0.43;;;0.40;;
50585;SDS011;36542;51.700;8.846;2023-04-01T03:21:30;1.03;;;0.20;;
50585;SDS011;36542;51.700;8.846;2023-04-01T03:23:56;0.20;;;0.20;;
50585;SDS011;36542;51.700;8.846;2023-04-01T03:26:22;0.50;;;0.30;;
50585;SDS011;36542;51.700;8.846;2023-04-01T03:28:47;0.37;;;0.30;;
50585;SDS011;36542;51.700;8.846;2023-04-01T03:31:13;1.43;;;0.40;;
50585;SDS011;36542;51.700;8.846;2023-04-01T03:33:39;0.53;;;0.40;;
50585;SDS011;36542;51.700;8.846;2023-04-01T03:36:05;0.97;;;0.20;;
50585;SDS011;36542;51.700;8.846;2023-04-01T03:38:32;0.30;;;0.30;;
50585;SDS011;36542;51.700;8.846;2023-04-01T03:40:58;0.20;;;0.20;;
50585;SDS011;36542;51.700;8.846;2023-04-01T03:43:24;0.10;;;0.10;;
50585;SDS011;36542;51.700;8.846;2023-04-01T03:45:51;2.00;;;0.30;;
50585;SDS011;36542;51.700;8.846;2023-04-01T03:48:17;1.00;;;0.30;;
50585;SDS011;36542;51.700;8.846;2023-04-01T03:50:45;0.63;;;0.20;;
50585;SDS011;36542;51.700;8.846;2023-04-01T03:53:11;0.57;;;0.50;;
50585;SDS011;36542;51.700;8.846;2023-04-01T03:55:37;0.90;;;0.20;;
50585;SDS011;36542;51.700;8.846;2023-04-01T03:58:03;0.77;;;0.27;;
50585;SDS011;36542;51.700;8.846;2023-04-01T04:00:30;0.73;;;0.40;;
50585;SDS011;36542;51.700;8.846;2023-04-01T04:02:56;0.60;;;0.37;;
50585;SDS011;36542;51.700;8.846;2023-04-01T04:05:22;0.20;;;0.20;;
50585;SDS011;36542;51.700;8.846;2023-04-01T04:07:49;1.63;;;0.37;;
50585;SDS011;36542;51.700;8.846;2023-04-01T04:10:16;0.10;;;0.10;;
50585;SDS011;36542;51.700;8.846;2023-04-01T04:12:41;0.67;;;0.30;;
50585;SDS011;36542;51.700;8.846;2023-04-01T04:15:07;0.40;;;0.40;;
50585;SDS011;36542;51.700;8.846;2023-04-01T04:17:33;0.47;;;0.47;;
50585;SDS011;36542;51.700;8.846;2023-04-01T04:19:59;2.10;;;0.30;;
50585;SDS011;36542;51.700;8.846;2023-04-01T04:22:24;0.87;;;0.30;;
50585;SDS011;36542;51.700;8.846;2023-04-01T04:24:50;1.90;;;0.30;;
50585;SDS011;36542;51.700;8.846;2023-04-01T04:27:15;0.23;;;0.23;;
50585;SDS011;36542;51.700;8.846;2023-04-01T04:29:41;0.70;;;0.20;;
50585;SDS011;36542;51.700;8.846;2023-04-01T04:32:07;3.03;;;0.60;;
50585;SDS011;36542;51.700;8.846;2023-04-01T04:34:33;0.53;;;0.20;;
50585;SDS011;36542;51.700;8.846;2023-04-01T04:36:58;0.70;;;0.30;;
50585;SDS011;36542;51.700;8.846;2023-04-01T04:39:24;0.20;;;0.20;;
50585;SDS011;36542;51.700;8.846;2023-04-01T04:41:50;0.97;;;0.30;;
50585;SDS011;36542;51.700;8.846;2023-04-01T04:44:15;0.50;;;0.50;;
50585;SDS011;36542;51.700;8.846;2023-04-01T04:46:41;1.70;;;0.30;;
50585;SDS011;36542;51.700;8.846;2023-04-01T04:49:06;1.30;;;0.50;;
50585;SDS011;36542;51.700;8.846;2023-04-01T04:51:32;0.30;;;0.30;;
50585;SDS011;36542;51.700;8.846;2023-04-01T04:54:01;1.67;;;0.40;;
50585;SDS011;36542;51.700;8.846;2023-04-01T04:56:27;0.50;;;0.40;;
50585;SDS011;36542;51.700;8.846;2023-04-01T04:58:53;0.60;;;0.60;;
50585;SDS011;36542;51.700;8.846;2023-04-01T05:01:19;1.17;;;0.23;;
50585;SDS011;36542;51.700;8.846;2023-04-01T05:03:45;0.20;;;0.20;;
50585;SDS011;36542;51.700;8.846;2023-04-01T05:06:12;0.20;;;0.20;;
50585;SDS011;36542;51.700;8.846;2023-04-01T05:08:39;0.30;;;0.30;;
50585;SDS011;36542;51.700;8.846;2023-04-01T05:11:06;1.17;;;0.20;;
50585;SDS011;36542;51.700;8.846;2023-04-01T05:13:37;1.13;;;0.20;;
50585;SDS011;36542;51.700;8.846;2023-04-01T05:16:02;0.30;;;0.20;;
50585;SDS011;36542;51.700;8.846;2023-04-01T05:18:28;0.27;;;0.27;;
50585;SDS011;36542;51.700;8.846;2023-04-01T05:20:54;0.20;;;0.20;;
50585;SDS011;36542;51.700;8.846;2023-04-01T05:23:20;0.30;;;0.30;;
50585;SDS011;36542;51.700;8.846;2023-04-01T05:25:49;0.53;;;0.20;;
50585;SDS011;36542;51.700;8.846;2023-04-01T05:28:17;0.20;;;0.20;;
50585;SDS011;36542;51.700;8.846;2023-04-01T05:30:44;0.43;;;0.43;;
50585;SDS011;36542;51.700;8.846;2023-04-01T05:33:10;1.00;;;0.27;;
50585;SDS011;36542;51.700;8.846;2023-04-01T05:35:36;0.40;;;0.37;;
50585;SDS011;36542;51.700;8.846;2023-04-01T05:38:02;1.60;;;0.40;;
50585;SDS011;36542;51.700;8.846;2023-04-01T05:40:28;0.23;;;0.20;;
50585;SDS011;36542;51.700;8.846;2023-04-01T05:42:54;1.40;;;0.67;;
50585;SDS011;36542;51.700;8.846;2023-04-01T05:45:20;1.47;;;0.33;;
50585;SDS011;36542;51.700;8.846;2023-04-01T05:47:45;0.77;;;0.70;;
50585;SDS011;36542;51.700;8.846;2023-04-01T05:50:11;1.77;;;1.27;;
50585;SDS011;36542;51.700;8.846;2023-04-01T05:52:37;0.77;;;0.70;;
50585;SDS011;36542;51.700;8.846;2023-04-01T05:55:03;1.20;;;1.10;;
50585;SDS011;36542;51.700;8.846;2023-04-01T05:57:29;0.70;;;0.70;;
50585;SDS011;36542;51.700;8.846;2023-04-01T05:59:55;0.70;;;0.70;;
50585;SDS011;36542;51.700;8.846;2023-04-01T06:02:20;0.80;;;0.63;;
50585;SDS011;36542;51.700;8.846;2023-04-01T06:04:46;0.80;;;0.80;;
50585;SDS011;36542;51.700;8.846;2023-04-01T06:07:16;0.90;;;0.40;;
50585;SDS011;36542;51.700;8.846;2023-04-01T06:09:43;0.63;;;0.60;;
50585;SDS011;36542;51.700;8.846;2023-04-01T06:15:00;0.73;;;0.73;;
50585;SDS011;36542;51.700;8.846;2023-04-01T06:20:41;0.60;;;0.50;;
50585;SDS011;36542;51.700;8.846;2023-04-01T06:25:58;0.47;;;0.30;;
50585;SDS011;36542;51.700;8.846;2023-04-01T06:28:37;1.63;;;0.53;;
50585;SDS011;36542;51.700;8.846;2023-04-01T06:31:31;0.63;;;0.63;;
50585;SDS011;36542;51.700;8.846;2023-04-01T06:36:43;0.60;;;0.53;;
50585;SDS011;36542;51.700;8.846;2023-04-01T06:39:38;0.97;;;0.50;;
50585;SDS011;36542;51.700;8.846;2023-04-01T06:45:28;0.50;;;0.50;;
50585;SDS011;36542;51.700;8.846;2023-04-01T06:50:50;0.80;;;0.60;;
50585;SDS011;36542;51.700;8.846;2023-04-01T06:53:39;0.73;;;0.37;;
50585;SDS011;36542;51.700;8.846;2023-04-01T06:56:29;1.13;;;0.80;;
50585;SDS011;36542;51.700;8.846;2023-04-01T06:59:05;0.40;;;0.40;;
50585;SDS011;36542;51.700;8.846;2023-04-01T07:01:38;0.87;;;0.80;;
50585;SDS011;36542;51.700;8.846;2023-04-01T07:06:55;2.20;;;0.90;;
50585;SDS011;36542;51.700;8.846;2023-04-01T07:09:31;0.90;;;0.90;;
50585;SDS011;36542;51.700;8.846;2023-04-01T07:12:00;1.00;;;0.90;;
50585;SDS011;36542;51.700;8.846;2023-04-01T07:14:37;0.80;;;0.80;;
50585;SDS011;36542;51.700;8.846;2023-04-01T07:17:06;1.83;;;0.70;;
50585;SDS011;36542;51.700;8.846;2023-04-01T07:19:57;1.23;;;1.00;;
50585;SDS011;36542;51.700;8.846;2023-04-01T07:22:39;0.60;;;0.60;;
50585;SDS011;36542;51.700;8.846;2023-04-01T07:25:17;0.70;;;0.70;;
50585;SDS011;36542;51.700;8.846;2023-04-01T07:27:46;1.20;;;0.80;;
50585;SDS011;36542;51.700;8.846;2023-04-01T07:30:16;1.13;;;1.00;;
50585;SDS011;36542;51.700;8.846;2023-04-01T07:35:29;0.90;;;0.80;;
50585;SDS011;36542;51.700;8.846;2023-04-01T07:38:15;1.27;;;0.80;;
50585;SDS011;36542;51.700;8.846;2023-04-01T08:00:16;0.60;;;0.60;;
50585;SDS011;36542;51.700;8.846;2023-04-01T08:11:00;0.50;;;0.50;;
50585;SDS011;36542;51.700;8.846;2023-04-01T08:16:27;1.03;;;0.57;;
50585;SDS011;36542;51.700;8.846;2023-04-01T08:19:03;0.70;;;0.70;;
50585;SDS011;36542;51.700;8.846;2023-04-01T08:21:48;0.63;;;0.63;;
50585;SDS011;36542;51.700;8.846;2023-04-01T08:24:25;0.70;;;0.70;;
50585;SDS011;36542;51.700;8.846;2023-04-01T08:26:58;1.33;;;0.70;;
50585;SDS011;36542;51.700;8.846;2023-04-01T08:29:34;1.83;;;1.60;;
50585;SDS011;36542;51.700;8.846;2023-04-01T08:32:11;3.20;;;1.13;;
50585;SDS011;36542;51.700;8.846;2023-04-01T08:34:42;2.80;;;0.70;;
50585;SDS011;36542;51.700;8.846;2023-04-01T08:39:41;0.40;;;0.40;;
50585;SDS011;36542;51.700;8.846;2023-04-01T08:45:14;1.27;;;1.03;;
50585;SDS011;36542;51.700;8.846;2023-04-01T08:47:52;0.40;;;0.40;;
50585;SDS011;36542;51.700;8.846;2023-04-01T08:53:27;0.30;;;0.30;;
50585;SDS011;36542;51.700;8.846;2023-04-01T08:56:17;0.37;;;0.37;;
50585;SDS011;36542;51.700;8.846;2023-04-01T09:07:32;1.47;;;0.80;;
50585;SDS011;36542;51.700;8.846;2023-04-01T09:19:02;0.60;;;0.60;;
50585;SDS011;36542;51.700;8.846;2023-04-01T09:29:54;1.73;;;1.03;;
50585;SDS011;36542;51.700;8.846;2023-04-01T09:32:56;5.27;;;1.50;;
50585;SDS011;36542;51.700;8.846;2023-04-01T09:35:50;0.50;;;0.47;;
50585;SDS011;36542;51.700;8.846;2023-04-01T09:49:38;0.73;;;0.70;;
50585;SDS011;36542;51.700;8.846;2023-04-01T09:52:25;0.80;;;0.70;;
50585;SDS011;36542;51.700;8.846;2023-04-01T09:58:01;0.50;;;0.50;;
50585;SDS011;36542;51.700;8.846;2023-04-01T10:03:36;0.60;;;0.60;;
50585;SDS011;36542;51.700;8.846;2023-04-01T10:12:31;0.40;;;0.40;;
50585;SDS011;36542;51.700;8.846;2023-04-01T10:15:09;0.70;;;0.70;;
50585;SDS011;36542;51.700;8.846;2023-04-01T10:18:06;2.13;;;1.90;;
50585;SDS011;36542;51.700;8.846;2023-04-01T10:36:03;1.10;;;1.10;;
50585;SDS011;36542;51.700;8.846;2023-04-01T10:56:51;1.40;;;0.97;;
50585;SDS011;36542;51.700;8.846;2023-04-01T11:20:02;0.80;;;0.80;;
50585;SDS011;36542;51.700;8.846;2023-04-01T11:22:51;0.90;;;0.90;;
50585;SDS011;36542;51.700;8.846;2023-04-01T11:33:59;1.07;;;1.07;;
50585;SDS011;36542;51.700;8.846;2023-04-01T11:43:09;2.53;;;1.63;;
50585;SDS011;36542;51.700;8.846;2023-04-01T11:46:01;1.70;;;1.60;;
50585;SDS011;36542;51.700;8.846;2023-04-01T11:48:50;1.33;;;1.23;;
50585;SDS011;36542;51.700;8.846;2023-04-01T11:57:07;1.30;;;0.90;;
50585;SDS011;36542;51.700;8.846;2023-04-01T12:05:24;0.60;;;0.60;;
50585;SDS011;36542;51.700;8.846;2023-04-01T12:13:52;0.40;;;0.40;;
50585;SDS011;36542;51.700;8.846;2023-04-01T12:16:42;2.10;;;1.90;;
50585;SDS011;36542;51.700;8.846;2023-04-01T12:19:20;1.73;;;0.70;;
50585;SDS011;36542;51.700;8.846;2023-04-01T12:21:52;0.90;;;0.80;;
50585;SDS011;36542;51.700;8.846;2023-04-01T12:24:46;1.73;;;1.63;;
50585;SDS011;36542;51.700;8.846;2023-04-01T12:30:11;2.67;;;1.57;;
50585;SDS011;36542;51.700;8.846;2023-04-01T12:33:00;2.03;;;1.40;;
50585;SDS011;36542;51.700;8.846;2023-04-01T12:38:41;0.63;;;0.47;;
50585;SDS011;36542;51.700;8.846;2023-04-01T12:44:21;1.23;;;1.10;;
50585;SDS011;36542;51.700;8.846;2023-04-01T12:50:23;2.47;;;0.70;;
50585;SDS011;36542;51.700;8.846;2023-04-01T12:52:49;0.87;;;0.60;;
50585;SDS011;36542;51.700;8.846;2023-04-01T13:06:52;0.70;;;0.70;;
50585;SDS011;36542;51.700;8.846;2023-04-01T13:09:27;1.13;;;1.03;;
50585;SDS011;36542;51.700;8.846;2023-04-01T13:20:51;2.30;;;1.13;;
50585;SDS011;36542;51.700;8.846;2023-04-01T13:29:23;1.20;;;1.13;;
50585;SDS011;36542;51.700;8.846;2023-04-01T13:37:48;1.20;;;1.10;;
50585;SDS011;36542;51.700;8.846;2023-04-01T13:43:37;1.40;;;0.90;;
50585;SDS011;36542;51.700;8.846;2023-04-01T13:48:51;0.87;;;0.87;;
50585;SDS011;36542;51.700;8.846;2023-04-01T13:57:40;1.10;;;1.00;;
50585;SDS011;36542;51.700;8.846;2023-04-01T14:05:46;1.10;;;1.10;;
50585;SDS011;36542;51.700;8.846;2023-04-01T14:11:24;1.47;;;1.10;;
50585;SDS011;36542;51.700;8.846;2023-04-01T14:17:02;1.30;;;1.20;;
50585;SDS011;36542;51.700;8.846;2023-04-01T14:19:52;0.97;;;0.93;;
50585;SDS011;36542;51.700;8.846;2023-04-01T14:22:37;1.60;;;1.50;;
50585;SDS011;36542;51.700;8.846;2023-04-01T14:36:29;1.30;;;1.20;;
50585;SDS011;36542;51.700;8.846;2023-04-01T14:39:22;1.13;;;1.03;;
50585;SDS011;36542;51.700;8.846;2023-04-01T14:41:58;1.13;;;1.03;;
50585;SDS011;36542;51.700;8.846;2023-04-01T14:44:45;1.27;;;1.20;;
50585;SDS011;36542;51.700;8.846;2023-04-01T14:50:15;1.40;;;1.20;;
50585;SDS011;36542;51.700;8.846;2023-04-01T14:52:59;1.00;;;1.00;;
50585;SDS011;36542;51.700;8.846;2023-04-01T15:12:26;1.80;;;1.70;;
50585;SDS011;36542;51.700;8.846;2023-04-01T15:15:21;2.30;;;1.73;;
50585;SDS011;36542;51.700;8.846;2023-04-01T15:17:57;3.70;;;2.97;;
50585;SDS011;36542;51.700;8.846;2023-04-01T15:20:44;5.80;;;3.67;;
50585;SDS011;36542;51.700;8.846;2023-04-01T15:31:34;4.73;;;2.17;;
50585;SDS011;36542;51.700;8.846;2023-04-01T15:34:42;3.97;;;2.73;;
50585;SDS011;36542;51.700;8.846;2023-04-01T15:37:31;2.00;;;1.80;;
50585;SDS011;36542;51.700;8.846;2023-04-01T15:40:17;3.07;;;2.73;;
50585;SDS011;36542;51.700;8.846;2023-04-01T15:42:57;6.90;;;6.20;;
50585;SDS011;36542;51.700;8.846;2023-04-01T15:45:39;4.03;;;3.63;;
50585;SDS011;36542;51.700;8.846;2023-04-01T15:48:18;3.10;;;2.80;;
50585;SDS011;36542;51.700;8.846;2023-04-01T15:51:01;4.43;;;2.37;;
50585;SDS011;36542;51.700;8.846;2023-04-01T15:53:30;4.20;;;3.70;;
50585;SDS011;36542;51.700;8.846;2023-04-01T15:56:11;6.17;;;4.80;;
50585;SDS011;36542;51.700;8.846;2023-04-01T16:01:43;12.57;;;7.80;;
50585;SDS011;36542;51.700;8.846;2023-04-01T16:16:00;2.10;;;1.90;;
50585;SDS011;36542;51.700;8.846;2023-04-01T16:18:39;3.00;;;2.53;;
50585;SDS011;36542;51.700;8.846;2023-04-01T16:24:15;4.07;;;3.73;;
50585;SDS011;36542;51.700;8.846;2023-04-01T16:26:56;5.83;;;4.80;;
50585;SDS011;36542;51.700;8.846;2023-04-01T16:29:40;3.17;;;2.87;;
50585;SDS011;36542;51.700;8.846;2023-04-01T16:32:21;3.23;;;2.93;;
50585;SDS011;36542;51.700;8.846;2023-04-01T16:37:49;3.70;;;2.80;;
50585;SDS011;36542;51.700;8.846;2023-04-01T16:51:40;4.17;;;3.70;;
50585;SDS011;36542;51.700;8.846;2023-04-01T16:54:27;5.73;;;5.23;;
50585;SDS011;36542;51.700;8.846;2023-04-01T16:59:36;4.23;;;3.83;;
50585;SDS011;36542;51.700;8.846;2023-04-01T17:02:22;4.23;;;3.83;;
50585;SDS011;36542;51.700;8.846;2023-04-01T17:04:58;3.90;;;3.57;;
50585;SDS011;36542;51.700;8.846;2023-04-01T17:07:35;5.00;;;4.50;;
50585;SDS011;36542;51.700;8.846;2023-04-01T17:10:13;6.40;;;5.37;;
50585;SDS011;36542;51.700;8.846;2023-04-01T17:16:19;15.90;;;11.10;;
50585;SDS011;36542;51.700;8.846;2023-04-01T17:21:57;8.00;;;7.20;;
50585;SDS011;36542;51.700;8.846;2023-04-01T17:24:57;8.30;;;7.50;;
50585;SDS011;36542;51.700;8.846;2023-04-01T17:27:41;14.73;;;10.00;;
50585;SDS011;36542;51.700;8.846;2023-04-01T17:30:21;6.90;;;6.20;;
50585;SDS011;36542;51.700;8.846;2023-04-01T17:35:59;17.50;;;14.43;;
50585;SDS011;36542;51.700;8.846;2023-04-01T17:44:10;63.63;;;23.63;;
50585;SDS011;36542;51.700;8.846;2023-04-01T17:49:41;37.20;;;22.80;;
50585;SDS011;36542;51.700;8.846;2023-04-01T17:52:23;18.03;;;10.80;;
50585;SDS011;36542;51.700;8.846;2023-04-01T17:57:52;22.07;;;15.37;;
50585;SDS011;36542;51.700;8.846;2023-04-01T18:02:57;27.70;;;21.13;;
50585;SDS011;36542;51.700;8.846;2023-04-01T18:11:44;19.67;;;14.63;;
50585;SDS011;36542;51.700;8.846;2023-04-01T18:19:40;11.40;;;9.23;;
50585;SDS011;36542;51.700;8.846;2023-04-01T18:22:28;10.13;;;7.30;;
50585;SDS011;36542;51.700;8.846;2023-04-01T18:25:14;16.37;;;11.30;;
50585;SDS011;36542;51.700;8.846;2023-04-01T18:27:53;23.13;;;20.70;;
50585;SDS011;36542;51.700;8.846;2023-04-01T18:30:41;16.23;;;13.40;;
50585;SDS011;36542;51.700;8.846;2023-04-01T18:33:25;13.07;;;10.57;;
50585;SDS011;36542;51.700;8.846;2023-04-01T18:44:26;13.33;;;9.33;;
50585;SDS011;36542;51.700;8.846;2023-04-01T18:52:44;19.03;;;17.13;;
50585;SDS011;36542;51.700;8.846;2023-04-01T19:00:37;20.03;;;15.57;;
50585;SDS011;36542;51.700;8.846;2023-04-01T19:05:46;8.17;;;6.80;;
50585;SDS011;36542;51.700;8.846;2023-04-01T19:08:18;9.33;;;7.67;;
50585;SDS011;36542;51.700;8.846;2023-04-01T19:13:40;8.20;;;7.37;;
50585;SDS011;36542;51.700;8.846;2023-04-01T19:16:37;10.00;;;8.13;;
50585;SDS011;36542;51.700;8.846;2023-04-01T19:22:20;10.70;;;7.63;;
50585;SDS011;36542;51.700;8.846;2023-04-01T19:25:19;7.00;;;5.87;;
50585;SDS011;36542;51.700;8.846;2023-04-01T19:28:13;5.53;;;4.43;;
50585;SDS011;36542;51.700;8.846;2023-04-01T19:33:37;2.93;;;2.63;;
50585;SDS011;36542;51.700;8.846;2023-04-01T19:36:26;3.03;;;2.73;;
50585;SDS011;36542;51.700;8.846;2023-04-01T19:41:52;5.27;;;4.67;;
50585;SDS011;36542;51.700;8.846;2023-04-01T19:50:27;7.13;;;5.87;;
50585;SDS011;36542;51.700;8.846;2023-04-01T19:53:12;8.27;;;6.47;;
50585;SDS011;36542;51.700;8.846;2023-04-01T19:56:05;8.17;;;6.90;;
50585;SDS011;36542;51.700;8.846;2023-04-01T20:00:58;8.13;;;7.03;;
50585;SDS011;36542;51.700;8.846;2023-04-01T20:17:07;9.30;;;7.53;;
50585;SDS011;36542;51.700;8.846;2023-04-01T20:19:55;11.93;;;8.53;;
50585;SDS011;36542;51.700;8.846;2023-04-01T20:22:30;11.77;;;9.87;;
50585;SDS011;36542;51.700;8.846;2023-04-01T20:25:10;13.07;;;9.73;;
50585;SDS011;36542;51.700;8.846;2023-04-01T20:27:47;14.40;;;11.13;;
50585;SDS011;36542;51.700;8.846;2023-04-01T20:38:46;13.63;;;11.27;;
50585;SDS011;36542;51.700;8.846;2023-04-01T20:44:12;12.20;;;9.73;;
50585;SDS011;36542;51.700;8.846;2023-04-01T20:47:23;11.83;;;9.87;;
50585;SDS011;36542;51.700;8.846;2023-04-01T20:49:45;12.47;;;8.67;;
50585;SDS011;36542;51.700;8.846;2023-04-01T20:52:41;12.43;;;9.57;;
50585;SDS011;36542;51.700;8.846;2023-04-01T20:58:38;11.10;;;9.37;;
50585;SDS011;36542;51.700;8.846;2023-04-01T21:01:15;11.17;;;9.23;;
50585;SDS011;36542;51.700;8.846;2023-04-01T21:09:39;7.83;;;6.97;;
50585;SDS011;36542;51.700;8.846;2023-04-01T21:12:23;8.50;;;7.27;;
50585;SDS011;36542;51.700;8.846;2023-04-01T21:18:15;6.20;;;5.60;;
50585;SDS011;36542;51.700;8.846;2023-04-01T21:21:11;5.27;;;4.83;;
50585;SDS011;36542;51.700;8.846;2023-04-01T21:26:43;5.87;;;5.30;;
50585;SDS011;36542;51.700;8.846;2023-04-01T21:35:35;6.80;;;6.13;;
50585;SDS011;36542;51.700;8.846;2023-04-01T21:38:32;5.90;;;5.30;;
50585;SDS011;36542;51.700;8.846;2023-04-01T21:44:15;5.57;;;5.07;;
50585;SDS011;36542;51.700;8.846;2023-04-01T21:50:00;6.17;;;5.57;;
50585;SDS011;36542;51.700;8.846;2023-04-01T21:52:37;5.40;;;4.90;;
50585;SDS011;36542;51.700;8.846;2023-04-01T22:00:58;5.80;;;5.30;;
50585;SDS011;36542;51.700;8.846;2023-04-01T22:09:04;4.13;;;3.73;;
50585;SDS011;36542;51.700;8.846;2023-04-01T22:17:26;5.13;;;4.63;;
50585;SDS011;36542;51.700;8.846;2023-04-01T22:20:05;4.97;;;4.57;;
50585;SDS011;36542;51.700;8.846;2023-04-01T22:25:43;4.43;;;4.07;;
50585;SDS011;36542;51.700;8.846;2023-04-01T22:28:16;5.63;;;5.13;;
50585;SDS011;36542;51.700;8.846;2023-04-01T22:30:52;5.27;;;4.77;;
50585;SDS011;36542;51.700;8.846;2023-04-01T22:33:38;5.43;;;4.93;;
50585;SDS011;36542;51.700;8.846;2023-04-01T22:47:27;5.07;;;4.20;;
50585;SDS011;36542;51.700;8.846;2023-04-01T22:50:19;6.40;;;4.70;;
50585;SDS011;36542;51.700;8.846;2023-04-01T22:52:54;6.10;;;5.30;;
50585;SDS011;36542;51.700;8.846;2023-04-01T22:55:30;6.20;;;5.37;;
50585;SDS011;36542;51.700;8.846;2023-04-01T22:58:09;6.10;;;5.40;;
50585;SDS011;36542;51.700;8.846;2023-04-01T23:00:40;6.10;;;5.40;;
50585;SDS011;36542;51.700;8.846;2023-04-01T23:03:14;7.60;;;6.83;;
50585;SDS011;36542;51.700;8.846;2023-04-01T23:05:48;7.27;;;6.10;;
50585;SDS011;36542;51.700;8.846;2023-04-01T23:08:34;8.57;;;7.07;;
50585;SDS011;36542;51.700;8.846;2023-04-01T23:11:18;10.93;;;7.50;;
50585;SDS011;36542;51.700;8.846;2023-04-01T23:14:02;9.20;;;8.27;;
50585;SDS011;36542;51.700;8.846;2023-04-01T23:19:41;10.23;;;8.53;;
50585;SDS011;36542;51.700;8.846;2023-04-01T23:22:15;13.13;;;10.10;;
50585;SDS011;36542;51.700;8.846;2023-04-01T23:27:46;14.17;;;11.13;;
50585;SDS011;36542;51.700;8.846;2023-04-01T23:35:51;14.03;;;10.70;;
50585;SDS011;36542;51.700;8.846;2023-04-01T23:38:31;14.17;;;10.90;;
50585;SDS011;36542;51.700;8.846;2023-04-01T23:41:06;15.00;;;10.47;;
50585;SDS011;36542;51.700;8.846;2023-04-01T23:43:57;18.90;;;12.37;;
50585;SDS011;36542;51.700;8.846;2023-04-01T23:46:25;13.27;;;10.60;;
50585;SDS011;36542;51.700;8.846;2023-04-01T23:48:52;13.30;;;11.03;;
50585;SDS011;36542;51.700;8.846;2023-04-01T23:53:44;14.03;;;11.53;;
50585;SDS011;36542;51.700;8.846;2023-04-01T23:56:10;13.43;;;11.10;;
50585;SDS011;36542;51.700;8.846;2023-04-01T23:58:44;17.00;;;12.20;;
